sensor_id;sensor_type;location;lat;lon;timestamp;pressure;altitude;pressure_sealevel;temperature;humidity
12801;BME280;6464;42.494;27.470;2022-10-31T00:02:04;101665.06;;;13.85;100.00
12801;BME280;6464;42.494;27.470;2022-10-31T00:04:50;101697.44;;;14.04;100.00
12801;BME280;6464;42.494;27.470;2022-10-31T00:17:34;101586.31;;;13.40;100.00
12801;BME280;6464;42.494;27.470;2022-10-31T00:35:05;101564.50;;;13.21;100.00
12801;BME280;6464;42.494;27.470;2022-10-31T00:37:58;101611.88;;;13.42;100.00
12801;BME280;6464;42.494;27.470;2022-10-31T00:46:15;101585.59;;;13.30;100.00
12801;BME280;6464;42.494;27.470;2022-10-31T00:49:17;101754.53;;;14.25;100.00
12801;BME280;6464;42.494;27.470;2022-10-31T05:14:21;101712.31;;;13.57;100.00
12801;BME280;6464;42.494;27.470;2022-10-31T05:20:25;101659.69;;;13.34;100.00
12801;BME280;6464;42.494;27.470;2022-10-31T05:40:14;101850.63;;;14.49;100.00
12801;BME280;6464;42.494;27.470;2022-10-31T05:42:57;101760.16;;;14.07;100.00
12801;BME280;6464;42.494;27.470;2022-10-31T05:45:30;101664.59;;;13.60;100.00
12801;BME280;6464;42.494;27.470;2022-10-31T05:48:02;101751.31;;;14.08;100.00
12801;BME280;6464;42.494;27.470;2022-10-31T05:50:32;101689.94;;;13.77;100.00
12801;BME280;6464;42.494;27.470;2022-10-31T05:53:02;101855.53;;;14.72;100.00
12801;BME280;6464;42.494;27.470;2022-10-31T05:55:48;101808.94;;;14.55;100.00
12801;BME280;6464;42.494;27.470;2022-10-31T05:58:25;101705.59;;;13.94;100.00
12801;BME280;6464;42.494;27.470;2022-10-31T06:01:06;101844.50;;;14.95;100.00
12801;BME280;6464;42.494;27.470;2022-10-31T06:03:35;101748.00;;;14.46;100.00
12801;BME280;6464;42.494;27.470;2022-10-31T06:06:03;101708.25;;;14.43;100.00
12801;BME280;6464;42.494;27.470;2022-10-31T06:08:42;101741.75;;;14.52;100.00
12801;BME280;6464;42.494;27.470;2022-10-31T06:11:24;101903.16;;;15.77;100.00
12801;BME280;6464;42.494;27.470;2022-10-31T06:13:53;101821.78;;;15.25;100.00
12801;BME280;6464;42.494;27.470;2022-10-31T06:16:35;101751.03;;;14.76;100.00
12801;BME280;6464;42.494;27.470;2022-10-31T06:19:12;101796.63;;;14.98;100.00
12801;BME280;6464;42.494;27.470;2022-10-31T06:21:40;101827.88;;;15.30;100.00
12801;BME280;6464;42.494;27.470;2022-10-31T06:24:12;101844.06;;;15.61;100.00
12801;BME280;6464;42.494;27.470;2022-10-31T06:26:42;101851.06;;;15.66;100.00
12801;BME280;6464;42.494;27.470;2022-10-31T06:29:13;101833.00;;;15.81;100.00
12801;BME280;6464;42.494;27.470;2022-10-31T06:31:44;101844.25;;;15.93;100.00
12801;BME280;6464;42.494;27.470;2022-10-31T06:34:12;101970.16;;;16.36;100.00
12801;BME280;6464;42.494;27.470;2022-10-31T06:36:43;101797.41;;;15.04;100.00
12801;BME280;6464;42.494;27.470;2022-10-31T06:39:11;101821.09;;;15.15;100.00
12801;BME280;6464;42.494;27.470;2022-10-31T06:41:44;101925.31;;;16.17;100.00
12801;BME280;6464;42.494;27.470;2022-10-31T06:44:25;101908.75;;;16.05;100.00
12801;BME280;6464;42.494;27.470;2022-10-31T06:46:55;101819.44;;;15.51;100.00
12801;BME280;6464;42.494;27.470;2022-10-31T06:49:25;101839.53;;;15.66;100.00
12801;BME280;6464;42.494;27.470;2022-10-31T06:51:59;101894.66;;;16.01;100.00
12801;BME280;6464;42.494;27.470;2022-10-31T06:54:40;101973.38;;;16.10;100.00
12801;BME280;6464;42.494;27.470;2022-10-31T06:57:22;101843.78;;;15.31;100.00
12801;BME280;6464;42.494;27.470;2022-10-31T06:59:55;101831.91;;;15.49;100.00
12801;BME280;6464;42.494;27.470;2022-10-31T07:02:34;101850.22;;;15.63;100.00
12801;BME280;6464;42.494;27.470;2022-10-31T07:05:07;102016.38;;;16.74;100.00
12801;BME280;6464;42.494;27.470;2022-10-31T07:07:37;101857.75;;;15.86;100.00
12801;BME280;6464;42.494;27.470;2022-10-31T07:10:08;101882.91;;;16.10;100.00
12801;BME280;6464;42.494;27.470;2022-10-31T07:12:37;101954.09;;;16.79;100.00
12801;BME280;6464;42.494;27.470;2022-10-31T07:15:12;101897.34;;;16.76;100.00
12801;BME280;6464;42.494;27.470;2022-10-31T07:29:25;101916.56;;;16.88;100.00
12801;BME280;6464;42.494;27.470;2022-10-31T07:31:58;101900.69;;;16.84;100.00
12801;BME280;6464;42.494;27.470;2022-10-31T07:34:40;102105.94;;;17.89;100.00
12801;BME280;6464;42.494;27.470;2022-10-31T07:37:18;102078.09;;;17.65;100.00
12801;BME280;6464;42.494;27.470;2022-10-31T07:40:00;101988.94;;;17.06;100.00
12801;BME280;6464;42.494;27.470;2022-10-31T07:48:01;102005.81;;;17.06;100.00
12801;BME280;6464;42.494;27.470;2022-10-31T07:50:33;102166.88;;;18.06;100.00
12801;BME280;6464;42.494;27.470;2022-10-31T07:58:27;102173.47;;;18.58;100.00
12801;BME280;6464;42.494;27.470;2022-10-31T08:01:15;102022.06;;;17.65;100.00
12801;BME280;6464;42.494;27.470;2022-10-31T08:06:49;102024.09;;;17.90;100.00
12801;BME280;6464;42.494;27.470;2022-10-31T08:12:12;102205.50;;;19.48;100.00
12801;BME280;6464;42.494;27.470;2022-10-31T08:20:11;102163.72;;;19.44;100.00
12801;BME280;6464;42.494;27.470;2022-10-31T08:28:11;102248.75;;;20.94;100.00
12801;BME280;6464;42.494;27.470;2022-10-31T08:36:31;102234.16;;;21.48;100.00
12801;BME280;6464;42.494;27.470;2022-10-31T08:39:10;102205.19;;;23.55;100.00
12801;BME280;6464;42.494;27.470;2022-10-31T08:41:38;102319.63;;;25.07;100.00
12801;BME280;6464;42.494;27.470;2022-10-31T08:44:10;102303.09;;;25.78;100.00
12801;BME280;6464;42.494;27.470;2022-10-31T08:46:37;102344.66;;;27.69;100.00
12801;BME280;6464;42.494;27.470;2022-10-31T08:49:04;102353.06;;;28.34;100.00
12801;BME280;6464;42.494;27.470;2022-10-31T08:51:31;102351.50;;;28.70;100.00
12801;BME280;6464;42.494;27.470;2022-10-31T08:53:58;102311.63;;;28.45;100.00
12801;BME280;6464;42.494;27.470;2022-10-31T08:56:25;102303.16;;;28.62;100.00
12801;BME280;6464;42.494;27.470;2022-10-31T08:58:53;102344.16;;;29.10;100.00
12801;BME280;6464;42.494;27.470;2022-10-31T09:01:21;102413.38;;;32.24;100.00
12801;BME280;6464;42.494;27.470;2022-10-31T09:03:48;102424.75;;;33.36;100.00
12801;BME280;6464;42.494;27.470;2022-10-31T09:06:15;102407.97;;;34.21;100.00
12801;BME280;6464;42.494;27.470;2022-10-31T09:08:42;102431.78;;;34.40;100.00
12801;BME280;6464;42.494;27.470;2022-10-31T09:11:09;102369.53;;;33.82;100.00
12801;BME280;6464;42.494;27.470;2022-10-31T09:13:36;102374.16;;;31.37;100.00
12801;BME280;6464;42.494;27.470;2022-10-31T09:16:03;102342.75;;;29.30;100.00
12801;BME280;6464;42.494;27.470;2022-10-31T09:18:32;102297.75;;;26.97;100.00
12801;BME280;6464;42.494;27.470;2022-10-31T09:20:59;102246.69;;;25.41;100.00
12801;BME280;6464;42.494;27.470;2022-10-31T09:23:26;102245.16;;;24.01;100.00
12801;BME280;6464;42.494;27.470;2022-10-31T09:25:54;102204.09;;;22.45;100.00
12801;BME280;6464;42.494;27.470;2022-10-31T09:28:23;102234.19;;;23.69;100.00
12801;BME280;6464;42.494;27.470;2022-10-31T09:31:00;102265.31;;;25.61;100.00
12801;BME280;6464;42.494;27.470;2022-10-31T09:33:28;102264.13;;;25.82;100.00
12801;BME280;6464;42.494;27.470;2022-10-31T09:35:58;102298.53;;;28.25;100.00
12801;BME280;6464;42.494;27.470;2022-10-31T09:38:25;102270.50;;;27.00;100.00
12801;BME280;6464;42.494;27.470;2022-10-31T09:40:55;102220.06;;;27.95;100.00
12801;BME280;6464;42.494;27.470;2022-10-31T09:43:31;102271.72;;;27.66;100.00
12801;BME280;6464;42.494;27.470;2022-10-31T09:46:06;102278.22;;;27.90;100.00
12801;BME280;6464;42.494;27.470;2022-10-31T09:48:48;102203.63;;;27.44;100.00
12801;BME280;6464;42.494;27.470;2022-10-31T09:51:22;102249.31;;;27.35;100.00
12801;BME280;6464;42.494;27.470;2022-10-31T09:53:54;102171.78;;;26.63;100.00
12801;BME280;6464;42.494;27.470;2022-10-31T09:56:25;102252.91;;;27.77;100.00
12801;BME280;6464;42.494;27.470;2022-10-31T09:58:55;102236.59;;;27.91;100.00
12801;BME280;6464;42.494;27.470;2022-10-31T10:01:30;102240.03;;;26.68;100.00
12801;BME280;6464;42.494;27.470;2022-10-31T10:04:02;102232.38;;;26.46;100.00
12801;BME280;6464;42.494;27.470;2022-10-31T10:06:35;102173.44;;;25.93;100.00
12801;BME280;6464;42.494;27.470;2022-10-31T10:09:08;102208.59;;;27.91;100.00
12801;BME280;6464;42.494;27.470;2022-10-31T10:11:46;102239.53;;;28.54;100.00
12801;BME280;6464;42.494;27.470;2022-10-31T10:14:34;102210.84;;;28.62;100.00
12801;BME280;6464;42.494;27.470;2022-10-31T10:17:15;102230.72;;;29.99;100.00
12801;BME280;6464;42.494;27.470;2022-10-31T10:20:12;102273.22;;;30.59;100.00
12801;BME280;6464;42.494;27.470;2022-10-31T10:22:52;102311.94;;;31.54;100.00
12801;BME280;6464;42.494;27.470;2022-10-31T10:25:23;102266.53;;;29.32;100.00
12801;BME280;6464;42.494;27.470;2022-10-31T10:27:59;102186.34;;;30.09;100.00
12801;BME280;6464;42.494;27.470;2022-10-31T10:30:34;102254.63;;;29.82;100.00
12801;BME280;6464;42.494;27.470;2022-10-31T10:33:04;102216.16;;;29.76;100.00
12801;BME280;6464;42.494;27.470;2022-10-31T10:35:39;102260.88;;;29.95;100.00
12801;BME280;6464;42.494;27.470;2022-10-31T10:38:14;102212.75;;;27.55;100.00
12801;BME280;6464;42.494;27.470;2022-10-31T10:40:43;102160.25;;;29.72;100.00
12801;BME280;6464;42.494;27.470;2022-10-31T10:43:19;102195.59;;;28.09;100.00
12801;BME280;6464;42.494;27.470;2022-10-31T10:45:51;102224.06;;;29.18;100.00
12801;BME280;6464;42.494;27.470;2022-10-31T10:48:42;102208.09;;;29.13;100.00
12801;BME280;6464;42.494;27.470;2022-10-31T10:51:21;102212.72;;;28.36;100.00
12801;BME280;6464;42.494;27.470;2022-10-31T10:54:02;102207.38;;;27.82;100.00
12801;BME280;6464;42.494;27.470;2022-10-31T10:56:40;102221.47;;;28.91;100.00
12801;BME280;6464;42.494;27.470;2022-10-31T10:59:14;102235.53;;;29.95;100.00
12801;BME280;6464;42.494;27.470;2022-10-31T11:01:42;102296.91;;;32.46;100.00
12801;BME280;6464;42.494;27.470;2022-10-31T11:04:27;102238.28;;;30.06;100.00
12801;BME280;6464;42.494;27.470;2022-10-31T11:06:59;102244.94;;;30.84;100.00
12801;BME280;6464;42.494;27.470;2022-10-31T11:09:28;102285.66;;;31.64;100.00
12801;BME280;6464;42.494;27.470;2022-10-31T11:11:55;102249.84;;;30.21;100.00
12801;BME280;6464;42.494;27.470;2022-10-31T11:14:23;102259.16;;;31.43;100.00
12801;BME280;6464;42.494;27.470;2022-10-31T11:17:07;102275.69;;;31.74;100.00
12801;BME280;6464;42.494;27.470;2022-10-31T11:19:37;102262.72;;;32.52;100.00
12801;BME280;6464;42.494;27.470;2022-10-31T11:22:18;102200.88;;;29.25;100.00
12801;BME280;6464;42.494;27.470;2022-10-31T11:28:23;102179.94;;;30.90;100.00
12801;BME280;6464;42.494;27.470;2022-10-31T11:31:52;102133.84;;;31.74;100.00
12801;BME280;6464;42.494;27.470;2022-10-31T11:35:28;102152.72;;;33.30;100.00
12801;BME280;6464;42.494;27.470;2022-10-31T11:37:31;102256.28;;;33.64;100.00
12801;BME280;6464;42.494;27.470;2022-10-31T11:40:06;102197.22;;;34.39;100.00
12801;BME280;6464;42.494;27.470;2022-10-31T11:42:46;102219.03;;;34.01;100.00
12801;BME280;6464;42.494;27.470;2022-10-31T11:48:24;102286.59;;;38.20;100.00
12801;BME280;6464;42.494;27.470;2022-10-31T11:50:59;102252.69;;;37.87;100.00
12801;BME280;6464;42.494;27.470;2022-10-31T11:53:50;102366.91;;;38.90;100.00
12801;BME280;6464;42.494;27.470;2022-10-31T11:56:22;102363.28;;;38.98;100.00
12801;BME280;6464;42.494;27.470;2022-10-31T11:59:01;102285.28;;;37.57;100.00
12801;BME280;6464;42.494;27.470;2022-10-31T12:01:32;102336.53;;;37.92;100.00
12801;BME280;6464;42.494;27.470;2022-10-31T12:04:34;102238.41;;;38.08;100.00
12801;BME280;6464;42.494;27.470;2022-10-31T12:07:24;102326.53;;;39.45;100.00
12801;BME280;6464;42.494;27.470;2022-10-31T12:10:00;102346.88;;;38.23;100.00
12801;BME280;6464;42.494;27.470;2022-10-31T12:12:51;102342.75;;;38.27;100.00
12801;BME280;6464;42.494;27.470;2022-10-31T12:15:30;102304.84;;;38.70;100.00
12801;BME280;6464;42.494;27.470;2022-10-31T12:18:15;102339.06;;;37.77;100.00
12801;BME280;6464;42.494;27.470;2022-10-31T12:20:54;102290.47;;;36.40;100.00
12801;BME280;6464;42.494;27.470;2022-10-31T12:23:38;102322.94;;;36.88;100.00
12801;BME280;6464;42.494;27.470;2022-10-31T12:26:21;102292.75;;;37.30;100.00
12801;BME280;6464;42.494;27.470;2022-10-31T12:29:16;102195.19;;;35.96;100.00
12801;BME280;6464;42.494;27.470;2022-10-31T12:31:55;102320.78;;;36.92;100.00
12801;BME280;6464;42.494;27.470;2022-10-31T12:34:50;102297.16;;;35.84;100.00
12801;BME280;6464;42.494;27.470;2022-10-31T12:37:42;102246.38;;;36.23;100.00
12801;BME280;6464;42.494;27.470;2022-10-31T12:40:26;102283.84;;;37.95;100.00
12801;BME280;6464;42.494;27.470;2022-10-31T12:43:13;102339.97;;;37.86;100.00
12801;BME280;6464;42.494;27.470;2022-10-31T12:45:56;102223.50;;;36.67;100.00
12801;BME280;6464;42.494;27.470;2022-10-31T12:51:39;102287.16;;;36.36;100.00
12801;BME280;6464;42.494;27.470;2022-10-31T12:54:29;102250.72;;;36.78;100.00
12801;BME280;6464;42.494;27.470;2022-10-31T12:57:09;102305.66;;;37.30;100.00
12801;BME280;6464;42.494;27.470;2022-10-31T12:59:44;102235.59;;;35.41;100.00
12801;BME280;6464;42.494;27.470;2022-10-31T13:02:18;102296.66;;;35.15;100.00
12801;BME280;6464;42.494;27.470;2022-10-31T13:04:55;102165.63;;;34.82;100.00
12801;BME280;6464;42.494;27.470;2022-10-31T13:07:37;102145.13;;;33.43;100.00
12801;BME280;6464;42.494;27.470;2022-10-31T13:10:16;102249.84;;;35.54;100.00
12801;BME280;6464;42.494;27.470;2022-10-31T13:12:49;102282.31;;;36.48;100.00
12801;BME280;6464;42.494;27.470;2022-10-31T13:15:27;102340.41;;;36.97;100.00
12801;BME280;6464;42.494;27.470;2022-10-31T13:17:59;102309.59;;;36.67;100.00
12801;BME280;6464;42.494;27.470;2022-10-31T13:20:31;102335.81;;;37.05;100.00
12801;BME280;6464;42.494;27.470;2022-10-31T13:23:05;102292.75;;;34.71;100.00
12801;BME280;6464;42.494;27.470;2022-10-31T13:25:39;102242.78;;;33.82;100.00
12801;BME280;6464;42.494;27.470;2022-10-31T13:28:26;102243.97;;;34.74;100.00
12801;BME280;6464;42.494;27.470;2022-10-31T13:30:56;102302.53;;;34.83;100.00
12801;BME280;6464;42.494;27.470;2022-10-31T13:33:27;102242.81;;;32.91;100.00
12801;BME280;6464;42.494;27.470;2022-10-31T13:36:07;102269.97;;;33.14;100.00
12801;BME280;6464;42.494;27.470;2022-10-31T13:38:46;102264.00;;;32.78;100.00
12801;BME280;6464;42.494;27.470;2022-10-31T13:41:26;102240.19;;;32.17;100.00
12801;BME280;6464;42.494;27.470;2022-10-31T13:44:00;102215.19;;;31.03;100.00
12801;BME280;6464;42.494;27.470;2022-10-31T13:46:36;102190.41;;;29.68;100.00
12801;BME280;6464;42.494;27.470;2022-10-31T13:49:23;102166.47;;;29.50;100.00
12801;BME280;6464;42.494;27.470;2022-10-31T13:51:50;102208.22;;;29.73;100.00
12801;BME280;6464;42.494;27.470;2022-10-31T13:54:22;102196.50;;;29.83;100.00
12801;BME280;6464;42.494;27.470;2022-10-31T13:56:50;102182.41;;;29.78;100.00
12801;BME280;6464;42.494;27.470;2022-10-31T13:59:21;102193.34;;;29.41;100.00
12801;BME280;6464;42.494;27.470;2022-10-31T14:01:51;102122.84;;;28.90;100.00
12801;BME280;6464;42.494;27.470;2022-10-31T14:04:23;102193.09;;;29.44;100.00
12801;BME280;6464;42.494;27.470;2022-10-31T14:06:56;102158.91;;;28.03;100.00
12801;BME280;6464;42.494;27.470;2022-10-31T14:09:29;102157.41;;;27.32;100.00
12801;BME280;6464;42.494;27.470;2022-10-31T14:11:59;102074.38;;;26.20;100.00
12801;BME280;6464;42.494;27.470;2022-10-31T14:14:39;102145.06;;;26.14;100.00
12801;BME280;6464;42.494;27.470;2022-10-31T14:17:19;102122.28;;;25.28;100.00
12801;BME280;6464;42.494;27.470;2022-10-31T14:19:59;102112.00;;;24.71;100.00
12801;BME280;6464;42.494;27.470;2022-10-31T14:22:31;102062.28;;;23.58;100.00
12801;BME280;6464;42.494;27.470;2022-10-31T14:24:59;102017.94;;;22.21;100.00
12801;BME280;6464;42.494;27.470;2022-10-31T14:27:45;102119.00;;;22.63;100.00
12801;BME280;6464;42.494;27.470;2022-10-31T14:30:33;102119.41;;;22.16;100.00
12801;BME280;6464;42.494;27.470;2022-10-31T14:33:09;102106.53;;;21.81;100.00
12801;BME280;6464;42.494;27.470;2022-10-31T14:35:58;102012.75;;;21.14;100.00
12801;BME280;6464;42.494;27.470;2022-10-31T14:38:51;102114.44;;;21.64;100.00
12801;BME280;6464;42.494;27.470;2022-10-31T14:41:48;102045.09;;;20.89;100.00
12801;BME280;6464;42.494;27.470;2022-10-31T14:47:57;102095.72;;;20.97;100.00
12801;BME280;6464;42.494;27.470;2022-10-31T14:50:48;102103.63;;;20.78;100.00
12801;BME280;6464;42.494;27.470;2022-10-31T15:43:22;101961.22;;;17.80;100.00
12801;BME280;6464;42.494;27.470;2022-10-31T15:48:45;102026.38;;;18.02;100.00
12801;BME280;6464;42.494;27.470;2022-10-31T15:51:36;102036.25;;;18.00;100.00
12801;BME280;6464;42.494;27.470;2022-10-31T16:05:00;102044.81;;;17.80;100.00
12801;BME280;6464;42.494;27.470;2022-10-31T16:07:30;102098.28;;;18.08;100.00
12801;BME280;6464;42.494;27.470;2022-10-31T16:10:34;102094.88;;;18.03;100.00
12801;BME280;6464;42.494;27.470;2022-10-31T16:13:14;102025.97;;;17.52;100.00
12801;BME280;6464;42.494;27.470;2022-10-31T16:16:02;102101.69;;;17.82;100.00
12801;BME280;6464;42.494;27.470;2022-10-31T16:18:39;102096.41;;;17.79;100.00
12801;BME280;6464;42.494;27.470;2022-10-31T16:24:49;102073.22;;;17.47;100.00
12801;BME280;6464;42.494;27.470;2022-10-31T16:27:30;102066.28;;;17.40;100.00
12801;BME280;6464;42.494;27.470;2022-10-31T16:30:32;102098.84;;;17.53;100.00
12801;BME280;6464;42.494;27.470;2022-10-31T16:33:40;102040.31;;;17.12;100.00
12801;BME280;6464;42.494;27.470;2022-10-31T16:36:31;102045.72;;;17.09;100.00
12801;BME280;6464;42.494;27.470;2022-10-31T16:39:02;102070.31;;;17.22;100.00
12801;BME280;6464;42.494;27.470;2022-10-31T16:41:48;102002.06;;;16.78;100.00
12801;BME280;6464;42.494;27.470;2022-10-31T16:44:26;102049.31;;;17.08;100.00
12801;BME280;6464;42.494;27.470;2022-10-31T16:47:44;101995.16;;;16.67;100.00
12801;BME280;6464;42.494;27.470;2022-10-31T17:01:06;101993.22;;;16.37;100.00
12801;BME280;6464;42.494;27.470;2022-10-31T17:03:38;101959.91;;;16.17;100.00
12801;BME280;6464;42.494;27.470;2022-10-31T17:08:57;101892.63;;;15.71;100.00
12801;BME280;6464;42.494;27.470;2022-10-31T17:11:43;101930.53;;;15.82;100.00
12801;BME280;6464;42.494;27.470;2022-10-31T17:14:12;102030.53;;;16.34;100.00
12801;BME280;6464;42.494;27.470;2022-10-31T17:20:08;101881.47;;;15.52;100.00
12801;BME280;6464;42.494;27.470;2022-10-31T17:26:07;101914.97;;;15.63;100.00
12801;BME280;6464;42.494;27.470;2022-10-31T17:28:44;101883.44;;;15.42;100.00
12801;BME280;6464;42.494;27.470;2022-10-31T17:31:37;101883.72;;;15.28;100.00
12801;BME280;6464;42.494;27.470;2022-10-31T17:34:08;101930.19;;;15.54;100.00
12801;BME280;6464;42.494;27.470;2022-10-31T17:40:04;101890.78;;;15.28;100.00
12801;BME280;6464;42.494;27.470;2022-10-31T17:42:59;101874.28;;;15.13;100.00
12801;BME280;6464;42.494;27.470;2022-10-31T17:45:34;101855.06;;;14.99;100.00
12801;BME280;6464;42.494;27.470;2022-10-31T17:48:27;101886.66;;;15.14;100.00
12801;BME280;6464;42.494;27.470;2022-10-31T17:51:13;101909.19;;;15.40;100.00
12801;BME280;6464;42.494;27.470;2022-10-31T17:53:48;101990.94;;;15.77;100.00
12801;BME280;6464;42.494;27.470;2022-10-31T18:05:03;101896.31;;;15.17;100.00
12801;BME280;6464;42.494;27.470;2022-10-31T18:07:49;101871.16;;;14.88;100.00
12801;BME280;6464;42.494;27.470;2022-10-31T18:10:21;101879.13;;;14.88;100.00
12801;BME280;6464;42.494;27.470;2022-10-31T18:13:08;101853.72;;;14.74;100.00
12801;BME280;6464;42.494;27.470;2022-10-31T18:16:00;101851.94;;;14.74;100.00
12801;BME280;6464;42.494;27.470;2022-10-31T18:18:58;101836.94;;;14.72;100.00
12801;BME280;6464;42.494;27.470;2022-10-31T18:24:18;101973.03;;;15.37;100.00
12801;BME280;6464;42.494;27.470;2022-10-31T18:26:47;102025.81;;;15.58;100.00
12801;BME280;6464;42.494;27.470;2022-10-31T18:29:20;102017.94;;;15.54;100.00
12801;BME280;6464;42.494;27.470;2022-10-31T18:31:58;101861.13;;;14.56;100.00
12801;BME280;6464;42.494;27.470;2022-10-31T18:34:27;101856.75;;;14.52;100.00
12801;BME280;6464;42.494;27.470;2022-10-31T18:37:18;101833.16;;;14.32;100.00
12801;BME280;6464;42.494;27.470;2022-10-31T18:40:04;102017.38;;;15.35;100.00
12801;BME280;6464;42.494;27.470;2022-10-31T18:42:43;101845.56;;;14.30;100.00
12801;BME280;6464;42.494;27.470;2022-10-31T18:45:16;101937.78;;;14.76;100.00
12801;BME280;6464;42.494;27.470;2022-10-31T18:47:49;101914.22;;;14.56;100.00
12801;BME280;6464;42.494;27.470;2022-10-31T18:50:21;101856.34;;;14.20;100.00
12801;BME280;6464;42.494;27.470;2022-10-31T18:52:55;101946.84;;;14.63;100.00
12801;BME280;6464;42.494;27.470;2022-10-31T18:55:26;102039.03;;;15.13;100.00
12801;BME280;6464;42.494;27.470;2022-10-31T18:58:06;101835.50;;;13.95;100.00
12801;BME280;6464;42.494;27.470;2022-10-31T19:00:42;101872.25;;;14.23;100.00
12801;BME280;6464;42.494;27.470;2022-10-31T19:03:29;101854.88;;;14.00;100.00
12801;BME280;6464;42.494;27.470;2022-10-31T19:05:59;101945.34;;;14.44;100.00
12801;BME280;6464;42.494;27.470;2022-10-31T19:08:34;102020.78;;;14.90;100.00
12801;BME280;6464;42.494;27.470;2022-10-31T19:11:07;101865.59;;;13.94;100.00
12801;BME280;6464;42.494;27.470;2022-10-31T19:13:36;101923.47;;;14.28;100.00
12801;BME280;6464;42.494;27.470;2022-10-31T19:16:06;101852.41;;;13.86;100.00
12801;BME280;6464;42.494;27.470;2022-10-31T19:18:34;101967.41;;;14.49;100.00
12801;BME280;6464;42.494;27.470;2022-10-31T19:21:10;101973.28;;;14.69;100.00
12801;BME280;6464;42.494;27.470;2022-10-31T19:23:54;101851.44;;;13.92;100.00
12801;BME280;6464;42.494;27.470;2022-10-31T19:26:31;101904.13;;;14.20;100.00
12801;BME280;6464;42.494;27.470;2022-10-31T19:29:04;101836.63;;;13.77;100.00
12801;BME280;6464;42.494;27.470;2022-10-31T19:31:35;101949.63;;;14.55;100.00
12801;BME280;6464;42.494;27.470;2022-10-31T19:34:07;101825.16;;;13.77;100.00
12801;BME280;6464;42.494;27.470;2022-10-31T19:36:36;101998.97;;;14.69;100.00
12801;BME280;6464;42.494;27.470;2022-10-31T19:39:05;101917.34;;;14.21;100.00
12801;BME280;6464;42.494;27.470;2022-10-31T19:41:35;101891.91;;;14.06;100.00
12801;BME280;6464;42.494;27.470;2022-10-31T19:44:04;101824.41;;;13.67;100.00
12801;BME280;6464;42.494;27.470;2022-10-31T19:46:33;101984.94;;;14.62;100.00
12801;BME280;6464;42.494;27.470;2022-10-31T19:49:05;101980.69;;;14.47;100.00
12801;BME280;6464;42.494;27.470;2022-10-31T19:51:36;101854.34;;;13.75;100.00
12801;BME280;6464;42.494;27.470;2022-10-31T19:54:09;101984.16;;;14.55;100.00
12801;BME280;6464;42.494;27.470;2022-10-31T19:56:38;101943.78;;;14.29;100.00
12801;BME280;6464;42.494;27.470;2022-10-31T20:01:42;101910.63;;;13.96;100.00
12801;BME280;6464;42.494;27.470;2022-10-31T20:04:29;101874.69;;;13.75;100.00
12801;BME280;6464;42.494;27.470;2022-10-31T20:07:37;101979.00;;;14.42;100.00
12801;BME280;6464;42.494;27.470;2022-10-31T20:19:49;101887.25;;;13.57;100.00
12801;BME280;6464;42.494;27.470;2022-10-31T20:22:57;101904.91;;;13.58;100.00
12801;BME280;6464;42.494;27.470;2022-10-31T20:29:01;101914.69;;;13.55;100.00
12801;BME280;6464;42.494;27.470;2022-10-31T20:32:10;101941.16;;;13.58;100.00
12801;BME280;6464;42.494;27.470;2022-10-31T20:34:57;101873.69;;;13.06;100.00
12801;BME280;6464;42.494;27.470;2022-10-31T20:37:56;101884.38;;;12.94;100.00
12801;BME280;6464;42.494;27.470;2022-10-31T20:40:58;101884.50;;;12.80;100.00
12801;BME280;6464;42.494;27.470;2022-10-31T20:44:26;101860.00;;;12.60;100.00
12801;BME280;6464;42.494;27.470;2022-10-31T20:53:37;102016.53;;;13.28;100.00
12801;BME280;6464;42.494;27.470;2022-10-31T20:57:18;101975.22;;;13.04;100.00
12801;BME280;6464;42.494;27.470;2022-10-31T21:00:19;101844.34;;;12.31;100.00
12801;BME280;6464;42.494;27.470;2022-10-31T21:03:30;101828.56;;;12.22;100.00
12801;BME280;6464;42.494;27.470;2022-10-31T21:12:53;102041.22;;;13.36;100.00
12801;BME280;6464;42.494;27.470;2022-10-31T21:15:57;101991.94;;;13.09;100.00
12801;BME280;6464;42.494;27.470;2022-10-31T21:18:54;102050.06;;;13.35;100.00
12801;BME280;6464;42.494;27.470;2022-10-31T21:21:41;101977.97;;;12.93;100.00
12801;BME280;6464;42.494;27.470;2022-10-31T21:24:49;102028.88;;;13.35;100.00
12801;BME280;6464;42.494;27.470;2022-10-31T21:30:39;101949.94;;;12.68;100.00
12801;BME280;6464;42.494;27.470;2022-10-31T21:39:55;101944.66;;;12.68;100.00
12801;BME280;6464;42.494;27.470;2022-10-31T21:45:43;101941.09;;;12.69;100.00
12801;BME280;6464;42.494;27.470;2022-10-31T22:04:10;101902.72;;;12.06;100.00
12801;BME280;6464;42.494;27.470;2022-10-31T22:07:50;101869.28;;;11.93;100.00
12801;BME280;6464;42.494;27.470;2022-10-31T22:11:11;101853.56;;;11.63;100.00
12801;BME280;6464;42.494;27.470;2022-10-31T22:26:10;101915.97;;;11.99;100.00
12801;BME280;6464;42.494;27.470;2022-10-31T22:39:18;101924.72;;;12.15;100.00
12801;BME280;6464;42.494;27.470;2022-10-31T23:05:03;101915.22;;;11.55;100.00
12801;BME280;6464;42.494;27.470;2022-10-31T23:23:33;101895.91;;;11.43;100.00
12801;BME280;6464;42.494;27.470;2022-10-31T23:26:37;102052.41;;;12.41;100.00
12801;BME280;6464;42.494;27.470;2022-10-31T23:46:39;102004.16;;;11.76;100.00
12801;BME280;6464;42.494;27.470;2022-10-31T23:56:15;101996.28;;;11.56;100.00
